METAR AND TAF INFORMATION
METAR FOR DTTA
ADDS - METARS form results

(2118 UTC 14 December 2018)
Data provider http://aviationweather.gov/metar/data/
 
METAR text: DTTA 142100Z 21003KT 180V240 9999 SCT023 10/08 Q1008 NOSIG
Conditions at: DTTA (TUNIS/CARTHAGE , TN) observed 2100 UTC 14 December 2018
Temperature: 10.0°C (50°F)
Dewpoint: 8.0°C (46°F) [RH = 87%]
Pressure (altimeter): 29.76 inches Hg (1008.0 mb)
Winds: from the SSW (210 degrees) at 3 MPH (3 knots; 1.5 m/s)
Visibility: 6 or more miles (10+ km)
Ceiling: at least 12,000 feet AGL
Clouds: scattered clouds at 2300 feet AGL
Weather: no significant weather observed at this time

METAR text: DTTA 142030Z 21004KT 9999 SCT023 10/08 Q1008 NOSIG
Conditions at: DTTA (TUNIS/CARTHAGE , TN) observed 2030 UTC 14 December 2018
Temperature: 10.0°C (50°F)
Dewpoint: 8.0°C (46°F) [RH = 87%]
Pressure (altimeter): 29.76 inches Hg (1008.0 mb)
Winds: from the SSW (210 degrees) at 5 MPH (4 knots; 2.1 m/s)
Visibility: 6 or more miles (10+ km)
Ceiling: at least 12,000 feet AGL
Clouds: scattered clouds at 2300 feet AGL
Weather: no significant weather observed at this time

Forecast for: COR
Text: TAF COR DTTA 141730Z 1418/1518 22014KT 7000 -RA SCT020 FEW026CB
Forecast period: 1800 UTC 14 December 2018 to 1800 UTC 15 December 2018
Forecast type: FROM: standard forecast or significant change
Winds: from the SW (220 degrees) at 16 MPH (14 knots; 7.2 m/s)
Visibility: 4 miles (7 km)
Ceiling: at least 12,000 feet AGL
Clouds: scattered clouds at 2000 feet AGL
few clouds at 2600 feet AGL
Weather: -RA  (light rain)
Text: TEMPO 1420/1510 33017G30KT 3000 TSRA SCT 30CB
Forecast period: 2000 UTC 14 December 2018 to 1000 UTC 15 December 2018
Forecast type: TEMPORARY: The following changes expected for less than half the time period
Winds: from the NNW (330 degrees) at 20 MPH (17 knots; 8.7 m/s)
gusting to 34 MPH (30 knots; 15.4 m/s)
Visibility: 1.86 miles (2.99 km)
Ceiling: at least 12,000 feet AGL
Clouds: scattered clouds at 3000 feet AGL
Weather: TSRA  (rain associated with thunderstorm(s))

 AIRPORT MAP

 RUNWAY INFORMATION
Runway 01 Runway length 10499 ft Runway width 148 ft
Runway elevation 13 ft Runway displaced threshold 0 ft Runway heading 12
Runway 19 Runway length 10499 ft Runway width 148 ft
Runway elevation 21 ft Runway displaced threshold 0 ft Runway heading 192
Runway 11 Runway length 9318 ft Runway width 148 ft
Runway elevation 19 ft Runway displaced threshold 0 ft Runway heading 113
Runway 29 Runway length 9318 ft Runway width 148 ft
Runway elevation 11 ft Runway displaced threshold 657 ft Runway heading 293

 AIRPORT FREQUENCIES
Type APP Name TUNIS APP Frequency 121.2 MHZ
Type ATIS Name TUNIS ATIS Frequency 118.675 MHZ
Type GND Name TUNIS GND Frequency 121.9 MHZ
Type TWR Name TUNIS TWR Frequency 118.1 MHZ

 AIRPORT NEAR NAVIGATION AIDS
Type NDB Name Tunis Frequency 386 KHZ
Type NDB Name Tunis Frequency 325 KHZ
Type VOR-DME Name Tunis Frequency 116500 KHZ



Powered by Virtual Airlines Manager [v2.6.2]